createdAt,value
2019-03-19T00:02:08.876Z,99527.38
2019-03-19T00:04:37.279Z,99524.80
2019-03-19T00:07:05.720Z,99530.19
2019-03-19T00:09:34.214Z,99533.80
2019-03-19T00:12:02.681Z,99541.78
2019-03-19T00:14:31.074Z,99537.38
2019-03-19T00:16:59.504Z,99533.96
2019-03-19T00:19:27.892Z,99534.91
2019-03-19T00:21:56.327Z,99535.83
2019-03-19T00:24:24.759Z,99536.78
2019-03-19T00:26:53.259Z,99539.44
2019-03-19T00:29:21.660Z,99543.05
2019-03-19T00:31:50.072Z,99544.00
2019-03-19T00:34:18.458Z,99552.89
2019-03-19T00:36:46.853Z,99545.87
2019-03-19T00:39:15.251Z,99544.16
2019-03-19T00:41:43.656Z,99550.42
2019-03-19T00:44:12.125Z,99550.34
2019-03-19T00:46:40.525Z,99543.36
2019-03-19T00:49:08.912Z,99555.74
2019-03-19T00:51:37.312Z,99544.31
2019-03-19T00:54:05.712Z,99549.63
2019-03-19T00:56:34.118Z,99546.13
2019-03-19T00:59:02.518Z,99545.26
2019-03-19T01:01:30.958Z,99545.33
2019-03-19T01:03:59.445Z,99549.78
2019-03-19T01:06:27.891Z,99561.38
2019-03-19T01:08:56.289Z,99561.38
2019-03-19T01:11:24.772Z,99558.78
2019-03-19T01:13:53.368Z,99554.42
2019-03-19T01:16:21.786Z,99549.09
2019-03-19T01:18:50.178Z,99550.05
2019-03-19T01:21:18.608Z,99553.66
2019-03-19T01:23:47.008Z,99552.78
2019-03-19T01:26:15.400Z,99552.78
2019-03-19T01:28:43.799Z,99559.05
2019-03-19T01:31:12.227Z,99560.84
2019-03-19T01:33:40.622Z,99566.23
2019-03-19T01:36:09.019Z,99565.28
2019-03-19T01:38:37.426Z,99560.91
2019-03-19T01:41:05.828Z,99575.16
2019-03-19T01:43:34.228Z,99570.71
2019-03-19T01:46:02.622Z,99568.05
2019-03-19T01:48:31.016Z,99571.63
2019-03-19T01:50:59.410Z,99565.47
2019-03-19T01:53:27.819Z,99570.79
2019-03-19T01:56:04.773Z,99569.99
2019-03-19T01:58:26.363Z,99558.13
2019-03-19T02:00:54.778Z,99558.13
2019-03-19T02:03:23.180Z,99580.63
2019-03-19T02:05:51.568Z,99581.58
2019-03-19T02:08:20.063Z,99590.50
2019-03-19T02:10:48.469Z,99591.34
2019-03-19T02:13:16.856Z,99593.23
2019-03-19T02:15:45.251Z,99580.16
2019-03-19T02:18:13.648Z,99595.09
2019-03-19T02:20:42.049Z,99604.89
2019-03-19T02:23:10.448Z,99597.83
2019-03-19T02:25:38.840Z,99601.44
2019-03-19T02:28:07.244Z,99597.06
2019-03-19T02:30:35.640Z,99598.86
2019-03-19T02:33:04.036Z,99605.05
2019-03-19T02:35:32.425Z,99610.36
2019-03-19T02:38:00.891Z,99606.91
2019-03-19T02:40:29.290Z,99603.41
2019-03-19T02:42:57.731Z,99610.52
2019-03-19T02:45:26.120Z,99619.43
2019-03-19T02:47:54.525Z,99626.46
2019-03-19T02:50:23.022Z,99625.63
2019-03-19T02:52:51.451Z,99626.46
2019-03-19T02:55:19.854Z,99624.75
2019-03-19T02:57:48.286Z,99619.50
2019-03-19T03:00:17.823Z,99629.27
2019-03-19T03:02:46.253Z,99638.12
2019-03-19T03:05:22.032Z,99639.14
2019-03-19T03:07:50.472Z,99648.90
2019-03-19T03:10:18.980Z,99649.77
2019-03-19T03:12:47.473Z,99655.09
2019-03-19T03:15:15.873Z,99653.38
2019-03-19T03:17:44.289Z,99656.03
2019-03-19T03:20:13.737Z,99661.35
2019-03-19T03:22:42.171Z,99649.91
2019-03-19T03:25:12.978Z,99649.08
2019-03-19T03:27:41.430Z,99644.59
2019-03-19T03:30:15.161Z,99642.89
2019-03-19T03:32:43.560Z,99646.48
2019-03-19T03:35:11.975Z,99652.65
2019-03-19T03:37:40.461Z,99654.54
2019-03-19T03:40:12.125Z,99650.06
2019-03-19T03:42:43.058Z,99655.38
2019-03-19T03:45:12.287Z,99664.30
2019-03-19T03:47:40.689Z,99663.45
2019-03-19T03:50:16.013Z,99663.45
2019-03-19T03:52:44.401Z,99667.90
2019-03-19T03:55:13.840Z,99670.56
2019-03-19T03:57:42.419Z,99673.22
2019-03-19T04:00:19.010Z,99672.41
2019-03-19T04:02:47.591Z,99669.76
2019-03-19T04:05:16.013Z,99675.08
2019-03-19T04:07:44.420Z,99684.87
2019-03-19T04:10:14.920Z,99683.99
2019-03-19T04:12:43.366Z,99689.31
2019-03-19T04:15:15.837Z,99689.31
2019-03-19T04:17:44.276Z,99694.63
2019-03-19T04:20:13.710Z,99693.86
2019-03-19T04:22:42.159Z,99704.41
2019-03-19T04:25:10.979Z,99707.98
2019-03-19T04:27:40.597Z,99700.88
2019-03-19T04:30:12.679Z,99708.86
2019-03-19T04:32:41.086Z,99708.86
2019-03-19T04:35:09.487Z,99714.17
2019-03-19T04:37:37.936Z,99712.46
2019-03-19T04:40:09.587Z,99719.56
2019-03-19T04:42:38.025Z,99721.34
2019-03-19T04:45:08.860Z,99731.98
2019-03-19T04:47:37.284Z,99733.73
2019-03-19T04:50:11.146Z,99739.05
2019-03-19T04:52:39.579Z,99739.95
2019-03-19T04:55:10.215Z,99747.92
2019-03-19T04:57:38.678Z,99751.53
2019-03-19T05:00:12.292Z,99753.24
2019-03-19T05:02:40.707Z,99754.19
2019-03-19T05:05:10.542Z,99762.16
2019-03-19T05:07:39.033Z,99762.16
2019-03-19T05:10:15.515Z,99772.80
2019-03-19T05:12:43.947Z,99777.23
2019-03-19T05:15:12.340Z,99779.02
2019-03-19T05:17:40.779Z,99787.87
2019-03-19T05:20:15.888Z,99790.59
2019-03-19T05:22:44.351Z,99797.76
2019-03-19T05:25:12.731Z,99806.54
2019-03-19T05:27:41.125Z,99812.77
2019-03-19T05:30:14.865Z,99822.48
2019-03-19T05:32:43.288Z,99821.61
2019-03-19T05:35:11.683Z,99827.80
2019-03-19T05:37:40.090Z,99828.72
2019-03-19T05:40:11.736Z,99833.96
2019-03-19T05:42:40.140Z,99832.18
2019-03-19T05:45:10.764Z,99825.95
2019-03-19T05:47:40.528Z,99833.93
2019-03-19T05:50:15.312Z,99832.98
2019-03-19T05:52:43.705Z,99845.37
2019-03-19T05:55:12.177Z,99850.69
2019-03-19T05:57:48.959Z,99854.25
2019-03-19T06:00:13.206Z,99856.00
2019-03-19T06:02:43.238Z,99852.41
2019-03-19T06:05:12.368Z,99850.62
2019-03-19T06:07:40.754Z,99855.06
2019-03-19T06:10:13.149Z,99853.28
2019-03-19T06:12:41.537Z,99856.71
2019-03-19T06:15:14.116Z,99857.59
2019-03-19T06:17:42.578Z,99860.24
2019-03-19T06:20:12.916Z,99860.17
2019-03-19T06:22:41.310Z,99862.73
2019-03-19T06:25:11.107Z,99862.73
2019-03-19T06:27:39.561Z,99861.66
2019-03-19T06:30:18.487Z,99866.06
2019-03-19T06:32:46.983Z,99869.50
2019-03-19T06:35:16.123Z,99874.69
2019-03-19T06:37:44.515Z,99876.27
2019-03-19T06:40:17.834Z,99879.70
2019-03-19T06:42:46.217Z,99880.44
2019-03-19T06:45:18.776Z,99882.86
2019-03-19T06:47:47.331Z,99879.12
2019-03-19T06:50:17.862Z,99873.66
2019-03-19T06:52:46.244Z,99875.23
2019-03-19T06:55:16.832Z,99875.10
2019-03-19T06:57:45.235Z,99876.68
2019-03-19T07:00:19.179Z,99881.86
2019-03-19T07:02:47.569Z,99875.45
2019-03-19T07:05:17.242Z,99869.05
2019-03-19T07:07:45.622Z,99873.28
2019-03-19T07:10:15.152Z,99876.65
2019-03-19T07:12:43.541Z,99877.38
2019-03-19T07:15:18.117Z,99878.08
2019-03-19T07:17:46.498Z,99877.94
2019-03-19T07:20:19.642Z,99883.88
2019-03-19T07:22:48.037Z,99880.23
2019-03-19T07:25:16.425Z,99885.27
2019-03-19T07:27:44.902Z,99880.64
2019-03-19T07:30:21.413Z,99883.16
2019-03-19T07:32:49.799Z,99878.53
2019-03-19T07:35:18.197Z,99881.05
2019-03-19T07:37:46.603Z,99879.95
2019-03-19T07:40:15.862Z,99885.13
2019-03-19T07:42:44.224Z,99889.44
2019-03-19T07:45:22.984Z,99890.13
2019-03-19T07:47:51.371Z,99897.97
2019-03-19T07:50:20.602Z,99899.55
2019-03-19T07:52:49.067Z,99902.97
2019-03-19T07:55:17.450Z,99902.83
2019-03-19T07:57:45.836Z,99915.05
2019-03-19T08:00:17.869Z,99908.63
2019-03-19T08:02:46.253Z,99912.02
2019-03-19T08:05:14.689Z,99913.58
2019-03-19T08:07:43.036Z,99911.52
2019-03-19T08:10:17.315Z,99915.60
2019-03-19T08:12:45.698Z,99918.80
2019-03-19T08:15:15.290Z,99922.98
2019-03-19T08:17:43.678Z,99927.11
2019-03-19T08:20:15.570Z,99933.23
2019-03-19T08:22:43.977Z,99929.47
2019-03-19T08:25:13.427Z,99924.05
2019-03-19T08:27:41.812Z,99925.53
2019-03-19T08:30:18.727Z,99920.97
2019-03-19T08:32:47.192Z,99924.27
2019-03-19T08:35:15.606Z,99923.05
2019-03-19T08:37:43.984Z,99930.66
2019-03-19T08:40:20.345Z,99932.30
2019-03-19T08:42:48.736Z,99936.44
2019-03-19T08:45:18.832Z,99940.50
2019-03-19T08:47:47.220Z,99947.39
2019-03-19T08:50:22.477Z,99945.41
2019-03-19T08:52:50.898Z,99945.92
2019-03-19T08:55:19.326Z,99937.59
2019-03-19T08:57:47.724Z,99941.57
2019-03-19T09:00:23.378Z,99940.37
2019-03-19T09:02:51.776Z,99951.75
2019-03-19T09:05:20.164Z,99958.72
2019-03-19T09:07:48.584Z,99954.14
2019-03-19T09:10:17.906Z,99947.77
2019-03-19T09:12:48.343Z,99952.06
2019-03-19T09:15:17.761Z,99951.14
2019-03-19T09:17:46.142Z,99955.28
2019-03-19T09:20:15.574Z,99957.50
2019-03-19T09:22:43.962Z,99957.05
2019-03-19T09:25:12.538Z,99960.05
2019-03-19T09:27:40.995Z,99956.67
2019-03-19T09:30:14.736Z,99959.61
2019-03-19T09:32:43.128Z,99965.95
2019-03-19T09:35:11.518Z,99969.42
2019-03-19T09:37:44.562Z,99965.08
2019-03-19T09:40:15.492Z,99965.26
2019-03-19T09:42:43.886Z,99973.31
2019-03-19T09:45:13.097Z,99986.59
2019-03-19T09:47:41.491Z,99969.25
2019-03-19T09:50:15.201Z,99968.36
2019-03-19T09:52:43.759Z,99972.10
2019-03-19T09:55:14.017Z,99970.36
2019-03-19T09:57:42.404Z,99979.82
2019-03-19T10:00:23.693Z,99963.84
2019-03-19T10:02:52.082Z,99972.16
2019-03-19T10:05:20.514Z,99967.95
2019-03-19T10:07:49.000Z,99966.62
2019-03-19T10:10:22.367Z,99965.19
2019-03-19T10:12:50.734Z,99965.50
2019-03-19T10:15:19.166Z,99971.05
2019-03-19T10:17:47.614Z,99972.38
2019-03-19T10:20:21.283Z,99977.33
2019-03-19T10:22:49.664Z,99976.17
2019-03-19T10:25:18.084Z,99978.20
2019-03-19T10:27:46.478Z,99976.77
2019-03-19T10:30:21.777Z,99977.05
2019-03-19T10:32:50.167Z,99980.97
2019-03-19T10:35:18.573Z,99993.05
2019-03-19T10:37:47.008Z,99993.41
2019-03-19T10:40:19.654Z,99992.84
2019-03-19T10:42:48.029Z,99990.35
2019-03-19T10:45:20.010Z,99990.83
2019-03-19T10:47:48.394Z,99991.30
2019-03-19T10:50:25.148Z,99988.91
2019-03-19T10:52:53.526Z,99985.95
2019-03-19T10:55:21.918Z,99984.02
2019-03-19T10:57:50.362Z,99984.24
2019-03-19T11:00:25.666Z,99982.72
2019-03-19T11:02:54.131Z,99977.83
2019-03-19T11:05:23.289Z,99989.02
2019-03-19T11:07:51.918Z,99983.95
2019-03-19T11:10:20.323Z,99980.52
2019-03-19T11:12:48.709Z,99991.23
2019-03-19T11:15:19.336Z,99986.16
2019-03-19T11:17:47.726Z,99992.45
2019-03-19T11:20:17.378Z,99996.39
2019-03-19T11:22:45.913Z,99993.12
2019-03-19T11:25:27.955Z,99993.52
2019-03-19T11:27:56.346Z,99993.00
2019-03-19T11:30:31.680Z,99988.10
2019-03-19T11:33:00.067Z,99983.89
2019-03-19T11:35:28.588Z,99988.16
2019-03-19T11:37:57.038Z,99993.52
2019-03-19T11:40:26.262Z,99984.89
2019-03-19T11:42:54.841Z,99982.48
2019-03-19T11:45:24.513Z,99980.95
2019-03-19T11:47:52.863Z,99980.70
2019-03-19T11:50:23.839Z,99981.16
2019-03-19T11:52:52.234Z,99983.53
2019-03-19T11:55:20.660Z,99978.38
2019-03-19T11:57:49.084Z,99978.48
2019-03-19T12:00:22.415Z,99976.53
2019-03-19T12:02:50.806Z,99981.20
2019-03-19T12:05:19.195Z,99982.11
2019-03-19T12:07:47.579Z,99989.61
2019-03-19T12:10:15.976Z,99982.17
2019-03-19T12:12:44.365Z,99981.03
2019-03-19T12:15:13.156Z,99984.48
2019-03-19T12:17:41.544Z,99989.92
2019-03-19T12:20:12.540Z,99983.27
2019-03-19T12:22:40.935Z,99982.95
2019-03-19T12:25:10.753Z,99986.55
2019-03-19T12:27:39.289Z,99983.16
2019-03-19T12:30:22.581Z,99983.80
2019-03-19T12:32:49.865Z,99983.48
2019-03-19T12:35:18.890Z,99989.51
2019-03-19T12:37:47.281Z,99983.32
2019-03-19T12:40:17.763Z,99989.17
2019-03-19T12:42:46.154Z,99990.25
2019-03-19T12:45:16.744Z,99990.81
2019-03-19T12:47:45.138Z,99982.55
2019-03-19T12:50:15.670Z,99978.70
2019-03-19T12:52:44.062Z,99991.17
2019-03-19T12:55:12.458Z,99983.75
2019-03-19T12:57:41.830Z,99986.64
2019-03-19T13:00:20.510Z,99991.91
2019-03-19T13:02:48.896Z,99994.80
2019-03-19T13:05:17.286Z,99989.95
2019-03-19T13:07:45.675Z,99988.36
2019-03-19T13:10:21.531Z,99986.86
2019-03-19T13:12:50.006Z,99993.14
2019-03-19T13:15:19.566Z,99991.05
2019-03-19T13:17:48.112Z,99984.78
2019-03-19T13:20:20.467Z,99988.27
2019-03-19T13:22:48.860Z,99992.55
2019-03-19T13:25:18.497Z,99989.38
2019-03-19T13:27:46.892Z,99993.05
2019-03-19T13:30:26.623Z,99996.52
2019-03-19T13:32:55.075Z,99997.17
2019-03-19T13:35:23.467Z,99995.43
2019-03-19T13:37:51.878Z,100002.09
2019-03-19T13:40:20.392Z,99996.15
2019-03-19T13:42:48.808Z,99995.01
2019-03-19T13:45:25.126Z,99996.61
2019-03-19T13:47:53.540Z,100004.11
2019-03-19T13:50:22.374Z,100001.02
2019-03-19T13:52:50.784Z,100006.78
2019-03-19T13:55:20.240Z,100002.25
2019-03-19T13:57:48.662Z,100009.32
2019-03-19T14:00:17.809Z,100014.41
2019-03-19T14:02:46.218Z,100005.38
2019-03-19T14:05:16.611Z,100003.42
2019-03-19T14:07:45.056Z,100014.08
2019-03-19T14:10:17.238Z,100017.27
2019-03-19T14:12:45.667Z,100018.53
2019-03-19T14:15:16.658Z,100016.32
2019-03-19T14:17:45.076Z,100014.05
2019-03-19T14:20:17.701Z,100016.61
2019-03-19T14:22:46.134Z,100017.11
2019-03-19T14:25:15.482Z,100014.81
2019-03-19T14:27:44.235Z,100017.86
2019-03-19T14:30:27.687Z,100026.36
2019-03-19T14:32:56.087Z,100021.41
2019-03-19T14:35:24.491Z,100022.94
2019-03-19T14:37:52.887Z,100026.86
2019-03-19T14:40:24.901Z,100033.36
2019-03-19T14:42:53.303Z,100038.05
2019-03-19T14:45:21.697Z,100040.44
2019-03-19T14:47:50.095Z,100043.69
2019-03-19T14:50:23.764Z,100036.98
2019-03-19T14:52:52.155Z,100046.30
2019-03-19T14:55:20.543Z,100049.53
2019-03-19T14:57:50.948Z,100050.01
2019-03-19T15:00:19.894Z,100042.42
2019-03-19T15:02:48.291Z,100057.13
2019-03-19T15:05:16.690Z,100055.77
2019-03-19T15:07:45.193Z,100059.66
2019-03-19T15:10:23.766Z,100061.83
2019-03-19T15:12:52.273Z,100062.95
2019-03-19T15:15:21.609Z,100067.52
2019-03-19T15:17:50.027Z,100057.86
2019-03-19T15:20:21.678Z,100063.30
2019-03-19T15:22:50.103Z,100060.82
2019-03-19T15:25:18.553Z,100060.03
2019-03-19T15:27:46.978Z,100068.22
2019-03-19T15:30:16.798Z,100063.91
2019-03-19T15:32:45.445Z,100072.06
2019-03-19T15:35:13.836Z,100068.72
2019-03-19T15:37:42.322Z,100074.23
2019-03-19T15:40:13.314Z,100070.97
2019-03-19T15:42:41.808Z,100081.81
2019-03-19T15:45:12.437Z,100087.32
2019-03-19T15:47:40.872Z,100085.77
2019-03-19T15:50:11.797Z,100090.52
2019-03-19T15:52:40.236Z,100088.96
2019-03-19T15:55:08.850Z,100097.13
2019-03-19T15:57:37.280Z,100093.02
2019-03-19T16:00:08.999Z,100095.84
2019-03-19T16:02:37.466Z,100097.80
2019-03-19T16:05:08.992Z,100101.59
2019-03-19T16:07:37.401Z,100106.24
2019-03-19T16:10:08.029Z,100114.48
2019-03-19T16:12:36.455Z,100112.92
2019-03-19T16:15:07.551Z,100122.92
2019-03-19T16:17:35.984Z,100115.14
2019-03-19T16:20:10.205Z,100120.67
2019-03-19T16:22:38.604Z,100119.91
2019-03-19T16:25:08.339Z,100125.41
2019-03-19T16:27:36.734Z,100126.44
2019-03-19T16:30:15.890Z,100134.63
2019-03-19T16:32:44.277Z,100132.11
2019-03-19T16:35:13.174Z,100132.26
2019-03-19T16:37:41.649Z,100140.34
2019-03-19T16:40:17.567Z,100145.83
2019-03-19T16:42:45.983Z,100152.19
2019-03-19T16:45:14.369Z,100160.38
2019-03-19T16:47:42.795Z,100159.64
2019-03-19T16:50:16.007Z,100162.38
2019-03-19T16:52:44.440Z,100163.41
2019-03-19T16:55:15.162Z,100172.44
2019-03-19T16:57:43.675Z,100173.38
2019-03-19T17:00:21.338Z,100170.86
2019-03-19T17:02:49.761Z,100175.42
2019-03-19T17:05:18.426Z,100183.58
2019-03-19T17:07:46.921Z,100177.44
2019-03-19T17:10:19.796Z,100189.05
2019-03-19T17:12:48.218Z,100189.19
2019-03-19T17:15:17.235Z,100191.09
2019-03-19T17:17:45.734Z,100192.95
2019-03-19T17:20:18.240Z,100192.18
2019-03-19T17:22:46.649Z,100205.59
2019-03-19T17:25:23.462Z,100203.94
2019-03-19T17:27:51.896Z,100210.18
2019-03-19T17:30:31.203Z,100218.28
2019-03-19T17:32:59.624Z,100219.27
2019-03-19T17:35:28.076Z,100221.16
2019-03-19T17:37:56.526Z,100216.77
2019-03-19T17:40:24.911Z,100225.69
2019-03-19T17:42:53.393Z,100230.24
2019-03-19T17:45:21.736Z,100231.19
2019-03-19T17:47:50.169Z,100235.64
2019-03-19T17:50:23.877Z,100237.53
2019-03-19T17:52:56.368Z,100241.11
2019-03-19T17:55:26.461Z,100244.73
2019-03-19T17:57:54.878Z,100250.16
2019-03-19T18:00:27.725Z,100252.89
2019-03-19T18:02:56.117Z,100251.17
2019-03-19T18:05:24.506Z,100249.45
2019-03-19T18:07:52.903Z,100253.06
2019-03-19T18:10:21.441Z,100253.06
2019-03-19T18:12:49.919Z,100261.20
2019-03-19T18:15:19.212Z,100265.65
2019-03-19T18:17:47.612Z,100263.05
2019-03-19T18:20:16.750Z,100266.80
2019-03-19T18:22:45.314Z,100278.47
2019-03-19T18:25:15.038Z,100282.00
2019-03-19T18:27:43.566Z,100270.47
2019-03-19T18:30:17.015Z,100274.02
2019-03-19T18:32:45.427Z,100282.00
2019-03-19T18:35:13.816Z,100289.19
2019-03-19T18:37:42.198Z,100283.02
2019-03-19T18:40:14.869Z,100285.75
2019-03-19T18:42:43.292Z,100285.75
2019-03-19T18:45:16.580Z,100291.08
2019-03-19T18:47:44.980Z,100300.80
2019-03-19T18:50:17.511Z,100299.00
2019-03-19T18:52:45.916Z,100299.07
2019-03-19T18:55:14.323Z,100307.20
2019-03-19T18:57:42.891Z,100308.08
2019-03-19T19:00:18.236Z,100310.73
2019-03-19T19:02:50.028Z,100311.68
2019-03-19T19:05:20.885Z,100311.68
2019-03-19T19:07:49.294Z,100318.80
2019-03-19T19:10:20.903Z,100316.13
2019-03-19T19:12:48.364Z,100317.98
2019-03-19T19:15:23.840Z,100324.13
2019-03-19T19:17:52.241Z,100324.25
2019-03-19T19:20:20.713Z,100324.32
2019-03-19T19:22:49.107Z,100328.80
2019-03-19T19:25:22.711Z,100329.72
2019-03-19T19:27:51.104Z,100327.05
2019-03-19T19:30:21.837Z,100324.48
2019-03-19T19:33:00.959Z,100328.94
2019-03-19T19:35:21.180Z,100327.21
2019-03-19T19:37:49.577Z,100336.11
2019-03-19T19:40:18.543Z,100329.94
2019-03-19T19:42:46.945Z,100330.78
2019-03-19T19:45:18.929Z,100342.45
2019-03-19T19:47:47.444Z,100340.66
2019-03-19T19:50:20.983Z,100334.52
2019-03-19T19:52:49.364Z,100338.13
2019-03-19T19:55:17.766Z,100344.39
2019-03-19T19:57:46.181Z,100336.46
2019-03-19T20:00:18.513Z,100336.53
2019-03-19T20:02:46.983Z,100344.52
2019-03-19T20:05:15.456Z,100345.46
2019-03-19T20:07:43.863Z,100349.06
2019-03-19T20:10:17.034Z,100354.39
2019-03-19T20:12:45.431Z,100352.64
2019-03-19T20:15:14.014Z,100354.45
2019-03-19T20:17:44.030Z,100356.23
2019-03-19T20:20:21.322Z,100358.91
2019-03-19T20:22:51.068Z,100363.35
2019-03-19T20:25:19.467Z,100365.17
2019-03-19T20:27:47.876Z,100368.77
2019-03-19T20:30:18.505Z,100367.02
2019-03-19T20:32:46.972Z,100375.95
2019-03-19T20:35:15.380Z,100366.23
2019-03-19T20:37:43.855Z,100375.16
2019-03-19T20:40:13.901Z,100372.50
2019-03-19T20:42:42.306Z,100378.67
2019-03-19T20:45:12.897Z,100381.27
2019-03-19T20:47:41.368Z,100374.10
2019-03-19T20:50:15.741Z,100371.44
2019-03-19T20:52:44.199Z,100377.61
2019-03-19T20:55:12.716Z,100373.28
2019-03-19T20:57:41.118Z,100380.28
2019-03-19T21:00:12.906Z,100388.33
2019-03-19T21:02:41.376Z,100379.55
2019-03-19T21:05:09.803Z,100382.28
2019-03-19T21:07:38.269Z,100384.12
2019-03-19T21:10:10.087Z,100380.73
2019-03-19T21:12:38.489Z,100376.34
2019-03-19T21:15:09.566Z,100382.68
2019-03-19T21:17:37.963Z,100388.12
2019-03-19T21:20:07.468Z,100386.40
2019-03-19T21:22:35.937Z,100392.72
2019-03-19T21:25:05.440Z,100395.56
2019-03-19T21:27:33.843Z,100399.17
2019-03-19T21:30:02.311Z,100399.23
2019-03-19T21:32:30.782Z,100399.34
2019-03-19T21:34:59.395Z,100394.17
2019-03-19T21:37:27.793Z,100401.37
2019-03-19T21:39:56.231Z,100406.75
2019-03-19T21:42:24.650Z,100411.28
2019-03-19T21:44:53.091Z,100413.95
2019-03-19T21:47:21.498Z,100414.01
2019-03-19T21:49:50.054Z,100410.58
2019-03-19T21:52:18.460Z,100411.45
2019-03-19T21:54:46.892Z,100417.84
2019-03-19T21:57:15.298Z,100411.69
2019-03-19T21:59:43.741Z,100413.45
2019-03-19T22:02:12.144Z,100419.77
2019-03-19T22:04:40.634Z,100415.34
2019-03-19T22:07:09.034Z,100418.06
2019-03-19T22:09:37.496Z,100417.22
2019-03-19T22:12:05.896Z,100421.77
2019-03-19T22:14:34.355Z,100429.81
2019-03-19T22:17:02.821Z,100421.83
2019-03-19T22:19:31.226Z,100422.83
2019-03-19T22:21:59.627Z,100429.09
2019-03-19T22:24:28.037Z,100429.09
2019-03-19T22:26:56.442Z,100432.73
2019-03-19T22:29:24.845Z,100433.67
2019-03-19T22:31:53.250Z,100431.91
2019-03-19T22:34:21.653Z,100438.17
2019-03-19T22:36:50.056Z,100435.62
2019-03-19T22:39:18.453Z,100436.55
2019-03-19T22:41:46.929Z,100434.83
2019-03-19T22:44:15.326Z,100441.08
2019-03-19T22:46:43.754Z,100434.00
2019-03-19T22:49:12.156Z,100432.28
2019-03-19T22:51:40.567Z,100442.97
2019-03-19T22:54:08.972Z,100443.91
2019-03-19T22:56:37.367Z,100447.50
2019-03-19T22:59:05.881Z,100434.37
2019-03-19T23:01:34.354Z,100448.49
2019-03-19T23:04:02.755Z,100449.39
2019-03-19T23:06:31.165Z,100448.60
2019-03-19T23:08:59.563Z,100469.88
2019-03-19T23:11:27.973Z,100463.69
2019-03-19T23:13:56.385Z,100469.14
2019-03-19T23:16:24.866Z,100467.33
2019-03-19T23:18:53.263Z,100480.68
2019-03-19T23:21:21.676Z,100475.41
2019-03-19T23:23:50.076Z,100484.33
2019-03-19T23:26:18.482Z,100480.82
2019-03-19T23:28:46.877Z,100478.16
2019-03-19T23:31:15.280Z,100481.77
2019-03-19T23:33:43.683Z,100495.07
2019-03-19T23:36:12.137Z,100493.34
2019-03-19T23:38:40.542Z,100500.39
2019-03-19T23:41:08.948Z,100502.30
2019-03-19T23:43:37.378Z,100498.77
2019-03-19T23:46:05.773Z,100499.70
2019-03-19T23:48:34.177Z,100506.83
2019-03-19T23:51:02.613Z,100512.15
2019-03-19T23:53:31.018Z,100507.78
2019-03-19T23:55:59.474Z,100513.98
2019-03-19T23:58:27.878Z,100514.86
